createdAt,value
2019-05-14T00:00:22.017Z,5.60
2019-05-14T00:02:52.077Z,5.10
2019-05-14T00:05:21.550Z,5.85
2019-05-14T00:07:52.135Z,5.90
2019-05-14T00:10:21.805Z,5.80
2019-05-14T00:12:51.414Z,5.62
2019-05-14T00:15:21.640Z,5.40
2019-05-14T00:17:52.203Z,5.78
2019-05-14T00:20:22.577Z,5.72
2019-05-14T00:22:53.205Z,6.03
2019-05-14T00:25:22.872Z,5.78
2019-05-14T00:27:51.908Z,5.90
2019-05-14T00:30:22.133Z,5.95
2019-05-14T00:32:53.263Z,5.97
2019-05-14T00:35:22.351Z,5.90
2019-05-14T00:37:53.533Z,6.00
2019-05-14T00:40:22.340Z,5.90
2019-05-14T00:42:53.345Z,5.62
2019-05-14T00:45:21.914Z,6.47
2019-05-14T00:47:52.461Z,6.05
2019-05-14T00:50:21.708Z,6.12
2019-05-14T00:52:51.703Z,6.28
2019-05-14T00:55:22.304Z,5.92
2019-05-14T00:57:52.206Z,6.15
2019-05-14T01:00:22.038Z,6.35
2019-05-14T01:02:51.865Z,6.22
2019-05-14T01:05:21.518Z,5.87
2019-05-14T01:07:51.508Z,5.12
2019-05-14T01:10:22.156Z,6.50
2019-05-14T01:12:52.051Z,6.22
2019-05-14T01:15:21.767Z,6.45
2019-05-14T01:17:51.634Z,6.08
2019-05-14T01:20:21.887Z,6.42
2019-05-14T01:22:51.642Z,6.40
2019-05-14T01:25:23.560Z,6.58
2019-05-14T01:27:51.942Z,6.45
2019-05-14T01:30:21.504Z,6.03
2019-05-14T01:32:51.130Z,6.35
2019-05-14T01:35:22.161Z,6.42
2019-05-14T01:37:52.244Z,6.10
2019-05-14T01:40:21.884Z,6.72
2019-05-14T01:42:52.221Z,6.60
2019-05-14T01:45:27.768Z,6.03
2019-05-14T01:47:52.814Z,6.62
2019-05-14T01:50:21.811Z,6.87
2019-05-14T01:52:52.051Z,5.90
2019-05-14T01:55:21.996Z,6.80
2019-05-14T01:57:51.812Z,6.67
2019-05-14T02:00:23.293Z,6.47
2019-05-14T02:02:52.508Z,6.50
2019-05-14T02:05:21.825Z,6.20
2019-05-14T02:07:52.609Z,6.15
2019-05-14T02:10:22.131Z,6.17
2019-05-14T02:12:51.557Z,5.92
2019-05-14T02:15:21.372Z,6.15
2019-05-14T02:17:51.912Z,6.03
2019-05-14T02:20:21.537Z,6.28
2019-05-14T02:22:52.447Z,6.33
2019-05-14T02:25:21.687Z,6.20
2019-05-14T02:27:51.973Z,6.50
2019-05-14T02:30:28.509Z,6.72
2019-05-14T02:32:51.788Z,6.03
2019-05-14T02:35:20.689Z,5.97
2019-05-14T02:37:50.502Z,6.75
2019-05-14T02:40:20.376Z,5.70
2019-05-14T02:42:50.017Z,6.92
2019-05-14T02:45:19.763Z,6.37
2019-05-14T02:47:50.277Z,6.05
2019-05-14T02:50:20.185Z,6.12
2019-05-14T02:52:49.801Z,6.95
2019-05-14T02:55:19.387Z,6.37
2019-05-14T02:57:50.041Z,6.17
2019-05-14T03:00:19.573Z,6.58
2019-05-14T03:02:49.575Z,6.15
2019-05-14T03:05:19.337Z,6.08
2019-05-14T03:07:51.160Z,6.50
2019-05-14T03:10:20.220Z,6.72
2019-05-14T03:12:50.002Z,5.78
2019-05-14T03:15:20.243Z,5.87
2019-05-14T03:17:49.520Z,6.10
2019-05-14T03:20:19.575Z,7.00
2019-05-14T03:23:02.032Z,5.80
2019-05-14T03:25:23.164Z,6.33
2019-05-14T03:27:52.103Z,5.50
2019-05-14T03:30:22.996Z,6.03
2019-05-14T03:33:02.687Z,6.42
2019-05-14T03:35:40.173Z,6.20
2019-05-14T03:38:00.575Z,6.60
2019-05-14T03:40:30.142Z,5.87
2019-05-14T03:42:59.806Z,6.33
2019-05-14T03:45:29.958Z,5.85
2019-05-14T03:47:59.796Z,6.53
2019-05-14T03:50:29.740Z,5.42
2019-05-14T03:52:59.672Z,5.80
2019-05-14T03:55:29.370Z,5.80
2019-05-14T03:57:59.512Z,5.83
2019-05-14T04:00:39.850Z,6.35
2019-05-14T04:03:09.703Z,5.58
2019-05-14T04:05:40.082Z,5.28
2019-05-14T04:08:09.864Z,5.92
2019-05-14T04:10:50.579Z,5.55
2019-05-14T04:13:19.620Z,4.62
2019-05-14T04:15:49.740Z,5.37
2019-05-14T04:18:20.768Z,4.60
2019-05-14T04:20:50.273Z,4.87
2019-05-14T04:23:21.159Z,5.28
2019-05-14T04:25:51.474Z,4.67
2019-05-14T04:28:21.675Z,5.37
2019-05-14T04:30:52.284Z,4.78
2019-05-14T04:33:23.081Z,5.58
2019-05-14T04:35:52.364Z,2.95
2019-05-14T04:38:29.634Z,4.62
2019-05-14T04:40:59.811Z,5.17
2019-05-14T04:43:29.366Z,5.47
2019-05-14T04:45:59.167Z,4.50
2019-05-14T04:48:36.315Z,4.97
2019-05-14T04:51:00.478Z,5.78
2019-05-14T04:53:31.096Z,5.33
2019-05-14T04:56:01.261Z,4.80
2019-05-14T04:58:30.306Z,4.90
2019-05-14T05:01:00.702Z,5.45
2019-05-14T05:03:31.316Z,5.53
2019-05-14T05:06:00.035Z,5.40
2019-05-14T05:08:30.355Z,5.53
2019-05-14T05:11:00.475Z,5.58
2019-05-14T05:13:29.691Z,5.47
2019-05-14T05:15:59.536Z,5.37
2019-05-14T05:18:29.706Z,5.60
2019-05-14T05:20:58.829Z,5.97
2019-05-14T05:23:28.266Z,5.70
2019-05-14T05:25:58.652Z,6.08
2019-05-14T05:28:28.327Z,5.85
2019-05-14T05:30:58.582Z,5.95
2019-05-14T05:33:29.413Z,6.42
2019-05-14T05:35:59.389Z,5.75
2019-05-14T05:38:29.423Z,6.45
2019-05-14T05:41:00.261Z,5.67
2019-05-14T05:43:29.978Z,5.65
2019-05-14T05:45:59.430Z,6.15
2019-05-14T05:48:28.910Z,5.85
2019-05-14T05:50:59.055Z,5.42
2019-05-14T05:53:28.891Z,6.17
2019-05-14T05:55:59.394Z,6.22
2019-05-14T05:58:29.930Z,6.92
2019-05-14T06:00:59.469Z,6.45
2019-05-14T06:03:30.247Z,6.67
2019-05-14T06:06:01.575Z,7.10
2019-05-14T06:08:30.545Z,6.03
2019-05-14T06:10:59.961Z,6.47
2019-05-14T06:13:29.117Z,6.45
2019-05-14T06:15:59.227Z,6.53
2019-05-14T06:18:34.541Z,6.40
2019-05-14T06:21:03.918Z,5.90
2019-05-14T06:23:33.015Z,5.97
2019-05-14T06:26:02.009Z,6.58
2019-05-14T06:28:33.636Z,7.10
2019-05-14T06:31:01.877Z,6.50
2019-05-14T06:33:30.799Z,6.20
2019-05-14T06:35:59.854Z,6.92
2019-05-14T06:38:29.599Z,6.62
2019-05-14T06:40:59.361Z,6.72
2019-05-14T06:43:29.070Z,5.12
2019-05-14T06:45:58.576Z,5.62
2019-05-14T06:48:34.363Z,4.55
2019-05-14T06:50:59.890Z,6.67
2019-05-14T06:53:29.381Z,6.83
2019-05-14T06:55:58.934Z,6.92
2019-05-14T06:58:29.731Z,6.70
2019-05-14T07:00:58.958Z,6.65
2019-05-14T07:03:28.750Z,4.33
2019-05-14T07:05:59.585Z,5.70
2019-05-14T07:08:29.510Z,6.25
2019-05-14T07:10:59.210Z,6.15
2019-05-14T07:13:29.203Z,5.95
2019-05-14T07:15:58.664Z,5.87
2019-05-14T07:18:30.218Z,5.60
2019-05-14T07:20:58.819Z,6.65
2019-05-14T07:23:28.915Z,7.12
2019-05-14T07:25:58.878Z,8.25
2019-05-14T07:28:29.023Z,6.33
2019-05-14T07:30:59.358Z,5.97
2019-05-14T07:33:30.564Z,6.15
2019-05-14T07:35:59.610Z,6.47
2019-05-14T07:38:28.912Z,6.28
2019-05-14T07:40:58.604Z,6.35
2019-05-14T07:43:28.852Z,5.78
2019-05-14T07:45:58.429Z,5.05
2019-05-14T07:48:28.834Z,5.12
2019-05-14T07:51:00.033Z,4.80
2019-05-14T07:53:38.551Z,5.15
2019-05-14T07:55:59.404Z,5.80
2019-05-14T07:58:33.720Z,4.90
2019-05-14T08:01:02.935Z,4.75
2019-05-14T08:03:32.056Z,4.97
2019-05-14T08:06:01.217Z,4.15
2019-05-14T08:08:31.149Z,4.10
2019-05-14T08:11:00.494Z,4.92
2019-05-14T08:13:29.761Z,5.25
2019-05-14T08:15:59.068Z,5.55
2019-05-14T08:18:29.104Z,5.67
2019-05-14T08:20:59.261Z,5.40
2019-05-14T08:23:28.423Z,6.15
2019-05-14T08:25:58.752Z,5.25
2019-05-14T08:28:34.416Z,5.37
2019-05-14T08:31:05.578Z,5.28
2019-05-14T08:33:34.609Z,5.60
2019-05-14T08:36:04.105Z,5.58
2019-05-14T08:38:32.869Z,5.70
2019-05-14T08:41:01.969Z,5.60
2019-05-14T08:43:31.366Z,5.25
2019-05-14T08:46:01.684Z,5.58
2019-05-14T08:48:30.872Z,5.03
2019-05-14T08:50:59.955Z,5.20
2019-05-14T08:53:29.607Z,4.42
2019-05-14T08:56:00.155Z,4.58
2019-05-14T08:58:30.224Z,4.37
2019-05-14T09:00:59.904Z,4.42
2019-05-14T09:03:28.930Z,3.27
2019-05-14T09:06:00.685Z,4.58
2019-05-14T09:08:28.649Z,3.90
2019-05-14T09:10:59.091Z,3.98
2019-05-14T09:13:28.984Z,3.67
2019-05-14T09:15:58.387Z,3.55
2019-05-14T09:18:29.111Z,3.98
2019-05-14T09:20:58.643Z,3.65
2019-05-14T09:23:30.968Z,4.08
2019-05-14T09:25:59.825Z,3.33
2019-05-14T09:28:29.041Z,3.25
2019-05-14T09:30:59.606Z,2.75
2019-05-14T09:33:29.686Z,2.50
2019-05-14T09:36:17.460Z,3.12
2019-05-14T09:38:31.908Z,2.70
2019-05-14T09:41:11.210Z,2.83
2019-05-14T09:43:31.300Z,3.10
2019-05-14T09:46:00.411Z,3.50
2019-05-14T09:48:29.868Z,3.37
2019-05-14T09:50:58.945Z,3.67
2019-05-14T09:53:28.842Z,4.10
2019-05-14T09:55:58.458Z,3.47
2019-05-14T09:58:28.271Z,4.00
2019-05-14T10:00:59.068Z,4.20
2019-05-14T10:03:28.337Z,4.33
2019-05-14T10:05:58.998Z,4.30
2019-05-14T10:08:28.540Z,4.03
2019-05-14T10:11:00.375Z,3.25
2019-05-14T10:13:29.100Z,3.47
2019-05-14T10:15:58.942Z,3.47
2019-05-14T10:18:28.517Z,3.17
2019-05-14T10:20:58.973Z,3.30
2019-05-14T10:23:28.472Z,2.65
2019-05-14T10:25:58.121Z,3.40
2019-05-14T10:28:28.833Z,3.10
2019-05-14T10:30:59.900Z,3.10
2019-05-14T10:33:28.935Z,3.90
2019-05-14T10:35:58.890Z,5.28
2019-05-14T10:38:29.508Z,3.00
2019-05-14T10:40:58.597Z,3.50
2019-05-14T10:43:28.861Z,3.90
2019-05-14T10:45:58.198Z,2.65
2019-05-14T10:48:29.099Z,3.75
2019-05-14T10:51:03.589Z,3.02
2019-05-14T10:53:32.589Z,3.52
2019-05-14T10:56:02.235Z,3.40
2019-05-14T10:58:31.824Z,3.30
2019-05-14T11:01:01.368Z,3.90
2019-05-14T11:03:30.414Z,2.60
2019-05-14T11:05:59.717Z,2.95
2019-05-14T11:08:29.584Z,3.70
2019-05-14T11:11:03.731Z,3.50
2019-05-14T11:13:30.561Z,3.85
2019-05-14T11:16:00.273Z,4.03
2019-05-14T11:18:29.674Z,3.80
2019-05-14T11:21:18.171Z,3.60
2019-05-14T11:23:30.119Z,4.70
2019-05-14T11:25:59.243Z,4.42
2019-05-14T11:28:28.915Z,4.00
2019-05-14T11:30:58.353Z,4.37
2019-05-14T11:33:29.537Z,3.98
2019-05-14T11:35:58.561Z,4.10
2019-05-14T11:38:36.707Z,4.00
2019-05-14T11:40:58.920Z,4.28
2019-05-14T11:43:28.953Z,3.30
2019-05-14T11:45:59.379Z,3.35
2019-05-14T11:48:28.508Z,3.15
2019-05-14T11:50:59.422Z,3.20
2019-05-14T11:53:28.840Z,3.33
2019-05-14T11:55:58.717Z,3.00
2019-05-14T11:58:29.474Z,2.95
2019-05-14T12:00:58.966Z,3.05
2019-05-14T12:03:28.615Z,3.30
2019-05-14T12:06:01.150Z,2.92
2019-05-14T12:08:30.707Z,3.47
2019-05-14T12:10:59.506Z,3.47
2019-05-14T12:13:32.078Z,3.05
2019-05-14T12:15:59.422Z,3.40
2019-05-14T12:18:29.176Z,4.70
2019-05-14T12:20:59.323Z,3.75
2019-05-14T12:23:29.855Z,3.80
2019-05-14T12:25:58.993Z,4.30
2019-05-14T12:28:29.156Z,4.10
2019-05-14T12:30:58.428Z,4.37
2019-05-14T12:33:30.353Z,4.42
2019-05-14T12:36:00.613Z,4.05
2019-05-14T12:38:30.105Z,4.60
2019-05-14T12:40:58.866Z,4.45
2019-05-14T12:43:28.596Z,4.00
2019-05-14T12:45:59.282Z,3.40
2019-05-14T12:48:29.788Z,3.22
2019-05-14T12:50:59.554Z,3.52
2019-05-14T12:53:28.926Z,3.12
2019-05-14T12:55:58.001Z,3.45
2019-05-14T12:58:28.549Z,3.85
2019-05-14T13:00:59.466Z,3.37
2019-05-14T13:03:28.547Z,3.77
2019-05-14T13:05:58.598Z,3.25
2019-05-14T13:08:27.792Z,3.67
2019-05-14T13:10:58.662Z,3.60
2019-05-14T13:13:29.014Z,3.35
2019-05-14T13:15:58.424Z,2.42
2019-05-14T13:18:29.089Z,3.25
2019-05-14T13:20:58.037Z,3.08
2019-05-14T13:23:29.257Z,3.52
2019-05-14T13:25:58.807Z,3.47
2019-05-14T13:28:31.864Z,3.27
2019-05-14T13:31:00.894Z,2.77
2019-05-14T13:33:29.843Z,3.12
2019-05-14T13:35:59.416Z,3.17
2019-05-14T13:38:29.194Z,3.35
2019-05-14T13:41:03.521Z,2.85
2019-05-14T13:43:32.417Z,3.37
2019-05-14T13:46:01.915Z,3.22
2019-05-14T13:48:31.185Z,2.60
2019-05-14T13:51:00.148Z,3.02
2019-05-14T13:53:43.831Z,2.30
2019-05-14T13:56:12.938Z,2.60
2019-05-14T13:58:42.037Z,3.00
2019-05-14T14:01:11.322Z,2.65
2019-05-14T14:03:48.718Z,2.62
2019-05-14T14:06:11.414Z,2.92
2019-05-14T14:08:42.315Z,2.83
2019-05-14T14:11:12.754Z,2.50
2019-05-14T14:13:42.459Z,2.72
2019-05-14T14:16:14.961Z,2.65
2019-05-14T14:18:42.161Z,2.58
2019-05-14T14:21:13.374Z,2.55
2019-05-14T14:23:42.508Z,2.35
2019-05-14T14:26:11.427Z,3.00
2019-05-14T14:28:40.437Z,2.60
2019-05-14T14:31:10.906Z,3.50
2019-05-14T14:33:39.845Z,2.30
2019-05-14T14:36:09.494Z,2.40
2019-05-14T14:38:40.177Z,2.62
2019-05-14T14:41:10.132Z,2.67
2019-05-14T14:43:43.233Z,1.90
2019-05-14T14:46:13.903Z,3.30
2019-05-14T14:48:41.565Z,3.08
2019-05-14T14:51:10.531Z,2.90
2019-05-14T14:53:52.453Z,2.80
2019-05-14T14:56:10.519Z,2.62
2019-05-14T14:58:40.473Z,2.62
2019-05-14T15:01:09.545Z,2.72
2019-05-14T15:03:39.909Z,4.67
2019-05-14T15:06:10.348Z,2.65
2019-05-14T15:08:39.355Z,3.55
2019-05-14T15:11:08.938Z,3.67
2019-05-14T15:13:39.071Z,3.20
2019-05-14T15:16:13.447Z,3.08
2019-05-14T15:18:39.499Z,2.90
2019-05-14T15:21:09.829Z,3.37
2019-05-14T15:23:43.222Z,3.00
2019-05-14T15:26:12.024Z,2.77
2019-05-14T15:28:40.748Z,2.90
2019-05-14T15:31:09.975Z,2.75
2019-05-14T15:33:38.954Z,2.33
2019-05-14T15:36:09.104Z,3.05
2019-05-14T15:38:39.696Z,3.42
2019-05-14T15:41:13.226Z,4.25
2019-05-14T15:43:39.689Z,2.60
2019-05-14T15:46:08.946Z,3.22
2019-05-14T15:48:39.443Z,2.62
2019-05-14T15:51:14.363Z,2.77
2019-05-14T15:53:39.956Z,2.83
2019-05-14T15:56:10.657Z,2.87
2019-05-14T15:58:39.374Z,2.92
2019-05-14T16:01:10.149Z,2.60
2019-05-14T16:03:41.682Z,3.45
2019-05-14T16:06:10.670Z,3.20
2019-05-14T16:08:40.431Z,2.70
2019-05-14T16:11:11.316Z,3.10
2019-05-14T16:13:40.069Z,3.50
2019-05-14T16:16:10.666Z,2.65
2019-05-14T16:18:39.466Z,3.22
2019-05-14T16:21:10.551Z,2.98
2019-05-14T16:23:39.073Z,2.70
2019-05-14T16:26:08.889Z,2.98
2019-05-14T16:28:39.469Z,2.98
2019-05-14T16:31:08.915Z,3.58
2019-05-14T16:33:40.358Z,3.12
2019-05-14T16:36:08.880Z,2.75
2019-05-14T16:38:41.147Z,2.83
2019-05-14T16:41:10.034Z,3.40
2019-05-14T16:43:39.892Z,2.90
2019-05-14T16:46:09.809Z,2.87
2019-05-14T16:48:41.386Z,3.47
2019-05-14T16:51:10.735Z,3.08
2019-05-14T16:53:39.505Z,3.17
2019-05-14T16:56:08.750Z,3.08
2019-05-14T16:58:38.739Z,2.90
2019-05-14T17:01:09.541Z,2.90
2019-05-14T17:03:40.008Z,3.00
2019-05-14T17:06:09.392Z,3.27
2019-05-14T17:08:39.439Z,3.25
2019-05-14T17:11:09.011Z,3.08
2019-05-14T17:13:38.486Z,4.22
2019-05-14T17:16:08.793Z,3.15
2019-05-14T17:18:37.915Z,3.40
2019-05-14T17:21:09.157Z,2.92
2019-05-14T17:23:39.294Z,3.40
2019-05-14T17:26:09.068Z,3.10
2019-05-14T17:28:40.651Z,3.02
2019-05-14T17:31:09.925Z,3.27
2019-05-14T17:33:39.429Z,3.50
2019-05-14T17:36:09.666Z,2.92
2019-05-14T17:38:39.380Z,2.62
2019-05-14T17:41:10.417Z,3.10
2019-05-14T17:43:39.742Z,2.83
2019-05-14T17:46:09.702Z,2.90
2019-05-14T17:48:39.633Z,2.98
2019-05-14T17:51:09.441Z,2.90
2019-05-14T17:53:38.857Z,2.98
2019-05-14T17:56:08.408Z,2.90
2019-05-14T17:58:38.537Z,2.33
2019-05-14T18:01:09.148Z,3.12
2019-05-14T18:03:40.120Z,2.75
2019-05-14T18:06:09.410Z,3.42
2019-05-14T18:08:38.969Z,2.95
2019-05-14T18:11:09.391Z,4.17
2019-05-14T18:13:39.979Z,3.42
2019-05-14T18:16:09.350Z,3.08
2019-05-14T18:18:38.526Z,3.20
2019-05-14T18:21:09.405Z,3.22
2019-05-14T18:23:41.707Z,2.60
2019-05-14T18:26:09.406Z,2.70
2019-05-14T18:28:38.675Z,3.80
2019-05-14T18:31:09.488Z,2.92
2019-05-14T18:33:39.848Z,3.33
2019-05-14T18:36:09.152Z,3.02
2019-05-14T18:38:39.034Z,2.87
2019-05-14T18:41:08.638Z,3.30
2019-05-14T18:43:37.557Z,2.58
2019-05-14T18:46:08.455Z,3.33
2019-05-14T18:48:39.197Z,3.17
2019-05-14T18:51:10.005Z,3.12
2019-05-14T18:53:40.054Z,2.98
2019-05-14T18:56:20.391Z,3.47
2019-05-14T18:58:40.280Z,3.22
2019-05-14T19:01:10.153Z,3.35
2019-05-14T19:03:40.542Z,3.62
2019-05-14T19:06:10.361Z,3.75
2019-05-14T19:08:39.804Z,3.92
2019-05-14T19:11:08.897Z,3.85
2019-05-14T19:13:38.974Z,3.72
2019-05-14T19:16:09.713Z,4.20
2019-05-14T19:18:38.739Z,3.47
2019-05-14T19:21:08.867Z,3.58
2019-05-14T19:23:38.589Z,3.22
2019-05-14T19:26:09.667Z,3.35
2019-05-14T19:28:39.725Z,3.35
2019-05-14T19:31:09.145Z,3.80
2019-05-14T19:33:38.483Z,2.92
2019-05-14T19:36:08.872Z,3.77
2019-05-14T19:38:38.868Z,3.85
2019-05-14T19:41:08.744Z,3.30
2019-05-14T19:43:37.845Z,3.37
2019-05-14T19:46:08.607Z,3.47
2019-05-14T19:48:37.546Z,3.30
2019-05-14T19:51:12.683Z,3.52
2019-05-14T19:53:44.804Z,3.62
2019-05-14T19:56:19.507Z,3.80
2019-05-14T19:58:51.355Z,3.98
2019-05-14T20:01:28.568Z,3.65
2019-05-14T20:03:58.986Z,4.12
2019-05-14T20:06:31.516Z,4.65
2019-05-14T20:09:04.264Z,4.80
2019-05-14T20:11:39.523Z,3.92
2019-05-14T20:14:21.641Z,4.60
2019-05-14T20:16:51.826Z,4.30
2019-05-14T20:19:21.777Z,4.17
2019-05-14T20:21:58.787Z,3.42
2019-05-14T20:24:32.028Z,3.70
2019-05-14T20:27:08.278Z,3.77
2019-05-14T20:29:32.887Z,3.22
2019-05-14T20:32:08.566Z,3.75
2019-05-14T20:34:38.384Z,3.08
2019-05-14T20:37:08.937Z,3.52
2019-05-14T20:39:39.090Z,3.62
2019-05-14T20:42:09.208Z,3.40
2019-05-14T20:44:38.804Z,3.60
2019-05-14T20:47:10.618Z,3.15
2019-05-14T20:49:57.947Z,3.17
2019-05-14T20:52:28.273Z,3.08
2019-05-14T20:54:58.323Z,3.37
2019-05-14T20:57:32.759Z,3.22
2019-05-14T20:59:58.843Z,3.10
2019-05-14T21:02:29.512Z,3.30
2019-05-14T21:05:04.540Z,3.20
2019-05-14T21:07:31.959Z,4.97
2019-05-14T21:10:01.085Z,3.67
2019-05-14T21:12:30.213Z,3.33
2019-05-14T21:14:59.241Z,3.10
2019-05-14T21:17:28.232Z,3.37
2019-05-14T21:19:57.559Z,3.50
2019-05-14T21:22:29.040Z,3.83
2019-05-14T21:24:57.429Z,4.05
2019-05-14T21:27:43.872Z,3.30
2019-05-14T21:30:03.254Z,3.00
2019-05-14T21:32:31.983Z,3.70
2019-05-14T21:35:01.282Z,3.60
2019-05-14T21:37:30.685Z,3.50
2019-05-14T21:39:59.473Z,3.35
2019-05-14T21:42:28.770Z,4.00
2019-05-14T21:44:58.393Z,4.12
2019-05-14T21:47:33.866Z,3.55
2019-05-14T21:50:04.270Z,3.65
2019-05-14T21:52:33.388Z,3.90
2019-05-14T21:55:02.452Z,3.90
2019-05-14T21:57:31.764Z,5.92
2019-05-14T22:00:00.749Z,3.98
2019-05-14T22:02:30.560Z,3.52
2019-05-14T22:05:01.526Z,3.95
2019-05-14T22:07:33.041Z,3.67
2019-05-14T22:10:01.997Z,4.28
2019-05-14T22:12:31.054Z,3.92
2019-05-14T22:15:00.034Z,3.72
2019-05-14T22:17:28.939Z,4.10
2019-05-14T22:19:58.429Z,4.80
2019-05-14T22:22:27.785Z,3.87
2019-05-14T22:24:58.256Z,4.10
2019-05-14T22:27:28.165Z,4.72
2019-05-14T22:30:01.302Z,3.70
2019-05-14T22:32:30.210Z,4.10
2019-05-14T22:34:59.020Z,4.10
2019-05-14T22:37:28.176Z,4.17
2019-05-14T22:39:59.046Z,3.90
2019-05-14T22:42:28.244Z,4.12
2019-05-14T22:44:58.314Z,3.98
2019-05-14T22:47:27.582Z,4.00
2019-05-14T22:49:59.195Z,4.10
2019-05-14T22:52:31.119Z,3.62
2019-05-14T22:54:59.056Z,3.40
2019-05-14T22:57:30.833Z,3.40
2019-05-14T22:59:58.382Z,3.65
2019-05-14T23:02:28.483Z,3.70
2019-05-14T23:04:58.541Z,3.40
2019-05-14T23:07:27.618Z,3.12
2019-05-14T23:09:58.943Z,3.58
2019-05-14T23:12:28.683Z,3.52
2019-05-14T23:14:58.135Z,3.40
2019-05-14T23:17:28.045Z,3.92
2019-05-14T23:19:58.092Z,3.90
2019-05-14T23:22:29.560Z,3.67
2019-05-14T23:24:59.460Z,3.87
2019-05-14T23:27:29.385Z,4.42
2019-05-14T23:29:58.777Z,3.77
2019-05-14T23:32:28.527Z,3.50
2019-05-14T23:34:58.448Z,3.83
2019-05-14T23:37:29.094Z,3.80
2019-05-14T23:39:59.393Z,3.67
2019-05-14T23:42:28.233Z,4.10
2019-05-14T23:44:58.555Z,3.87
2019-05-14T23:47:28.916Z,4.30
2019-05-14T23:50:04.081Z,4.00
2019-05-14T23:52:33.222Z,4.33
2019-05-14T23:55:02.110Z,4.33
2019-05-14T23:57:36.218Z,4.03
